Time;durP1;ratioP1;P1;durP2;ratioP2;P2;SDS_P1;SDS_P2;PMS_P1;PMS_P2;Temp;Humidity;BMP_temperature;BMP_pressure;BME280_temperature;BME280_humidity;BME280_pressure;Samples;Min_cycle;Max_cycle;Signal;HPM_P1;HPM_P2
2022/06/25 00:00:12;;;;;;;2.58;1.60;;;;;;;23.15;35.82;98270.47;4363350;32;20118;-72
2022/06/25 00:02:39;;;;;;;2.45;1.50;;;;;;;23.09;35.99;98258.88;4363420;32;20547;-72
2022/06/25 00:07:57;;;;;;;4.22;1.62;;;;;;;23.09;36.13;98253.53;4362917;32;20464;-72
2022/06/25 00:10:25;;;;;;;3.25;1.40;;;;;;;23.11;36.51;98251.44;4362952;32;20095;-72
2022/06/25 00:12:52;;;;;;;2.35;1.52;;;;;;;23.07;36.07;98244.88;4363266;32;20461;-72
2022/06/25 00:15:20;;;;;;;4.65;1.67;;;;;;;23.08;35.99;98251.06;4357190;32;20091;-72
2022/06/25 00:17:47;;;;;;;4.57;1.90;;;;;;;23.06;36.31;98248.63;4363299;32;20087;-72
2022/06/25 00:20:14;;;;;;;1.98;1.40;;;;;;;23.07;36.40;98244.88;4364404;32;20095;-71
2022/06/25 00:22:41;;;;;;;4.97;1.77;;;;;;;23.20;36.13;98242.03;4365507;32;20114;-71
2022/06/25 00:25:09;;;;;;;5.90;1.52;;;;;;;23.11;36.12;98239.94;4365312;32;20145;-71
2022/06/25 00:27:36;;;;;;;6.07;1.60;;;;;;;23.13;36.46;98235.97;4365296;32;20421;-72
2022/06/25 00:30:06;;;;;;;4.68;1.42;;;;;;;23.25;35.99;98243.19;4351843;32;20118;-71
2022/06/25 00:32:33;;;;;;;3.10;1.58;;;;;;;23.18;36.41;98241.47;4365363;32;20087;-71
2022/06/25 00:35:01;;;;;;;3.42;1.90;;;;;;;22.88;37.65;98246.84;4365034;32;20095;-71
2022/06/25 00:37:29;;;;;;;2.80;1.42;;;;;;;22.82;37.62;98234.44;4365137;32;20617;-71
2022/06/25 00:39:56;;;;;;;7.35;1.55;;;;;;;22.86;37.10;98232.91;4365229;32;20094;-71
2022/06/25 00:42:23;;;;;;;3.70;1.50;;;;;;;22.89;37.22;98226.28;4365269;32;20103;-72
2022/06/25 00:44:53;;;;;;;4.47;1.45;;;;;;;22.99;37.39;98231.88;4365039;32;20106;-72
2022/06/25 00:47:21;;;;;;;2.42;1.35;;;;;;;22.86;37.66;98236.41;4365098;32;20144;-72
2022/06/25 00:49:48;;;;;;;4.00;1.70;;;;;;;22.79;38.07;98238.34;4364936;32;20091;-72
2022/06/25 00:52:18;;;;;;;2.12;1.42;;;;;;;22.78;38.00;98249.28;4365334;32;20479;-72
2022/06/25 00:55:07;;;;;;;5.20;1.42;;;;;;;22.78;37.98;98243.94;4365417;32;20083;-72
2022/06/25 00:57:38;;;;;;;3.12;1.50;;;;;;;22.76;38.02;98249.50;4349227;32;77138;-71
2022/06/25 01:00:12;;;;;;;2.00;1.60;;;;;;;22.65;38.21;98250.28;4364914;32;20091;-72
2022/06/25 01:02:40;;;;;;;3.92;1.60;;;;;;;22.68;38.17;98244.50;4365240;32;20575;-71
2022/06/25 01:05:10;;;;;;;1.45;1.35;;;;;;;22.65;38.39;98251.09;4365217;32;20083;-72
2022/06/25 01:07:38;;;;;;;3.28;1.75;;;;;;;22.64;38.10;98254.00;4365253;32;20151;-72
2022/06/25 01:10:07;;;;;;;2.17;1.60;;;;;;;22.53;38.53;98250.25;4364684;32;20099;-72
2022/06/25 01:12:35;;;;;;;8.40;1.48;;;;;;;22.53;38.82;98254.78;4364879;32;20095;-72
2022/06/25 01:15:10;;;;;;;6.53;1.70;;;;;;;22.54;39.07;98267.09;4364961;32;20087;-71
2022/06/25 01:17:46;;;;;;;6.05;3.08;;;;;;;22.33;40.64;98271.87;4365285;32;20138;-72
2022/06/25 01:20:14;;;;;;;2.03;1.75;;;;;;;22.21;43.16;98263.81;4364973;32;20422;-72
2022/06/25 01:22:42;;;;;;;4.80;2.05;;;;;;;22.06;43.17;98256.19;4365233;32;20094;-71
2022/06/25 01:25:10;;;;;;;5.60;1.75;;;;;;;21.94;43.33;98249.97;4364630;32;20091;-72
2022/06/25 01:27:37;;;;;;;4.00;1.92;;;;;;;21.91;44.87;98250.44;4351471;32;20087;-72
2022/06/25 01:30:09;;;;;;;8.30;2.60;;;;;;;21.82;44.81;98251.75;4364482;32;20091;-72
2022/06/25 01:32:36;;;;;;;5.28;1.75;;;;;;;21.90;45.37;98260.25;4364878;32;20075;-72
2022/06/25 01:35:04;;;;;;;4.80;1.85;;;;;;;21.78;45.68;98252.19;4364768;32;20173;-72
2022/06/25 01:37:34;;;;;;;3.42;1.73;;;;;;;21.72;45.62;98255.75;4364792;32;20453;-72
2022/06/25 01:40:02;;;;;;;3.53;1.80;;;;;;;21.81;44.88;98245.59;4364867;32;20437;-71
2022/06/25 01:45:16;;;;;;;6.80;1.95;;;;;;;21.90;45.08;98244.25;4364826;32;20110;-71
2022/06/25 01:47:43;;;;;;;3.40;1.95;;;;;;;21.72;45.82;98236.28;4351381;32;20075;-71
2022/06/25 01:50:11;;;;;;;2.95;1.85;;;;;;;21.60;46.05;98221.03;4364472;32;20157;-71
2022/06/25 01:52:40;;;;;;;4.15;1.85;;;;;;;21.71;46.61;98229.31;4364606;32;20099;-71
2022/06/25 01:55:08;;;;;;;2.30;1.67;;;;;;;21.76;46.04;98222.28;4364583;32;20434;-72
2022/06/25 01:57:36;;;;;;;3.83;1.73;;;;;;;21.31;47.06;98208.38;4364997;32;20087;-72
2022/06/25 02:00:10;;;;;;;4.35;2.10;;;;;;;21.49;46.83;98220.91;4364890;32;20161;-72
2022/06/25 02:02:41;;;;;;;6.75;1.80;;;;;;;21.56;46.79;98232.34;4364743;32;20091;-71
2022/06/25 02:05:11;;;;;;;7.68;2.20;;;;;;;21.50;47.31;98231.38;4364756;32;20493;-72
2022/06/25 02:07:38;;;;;;;3.60;1.95;;;;;;;21.39;48.42;98230.25;4364711;32;20103;-72
2022/06/25 02:10:06;;;;;;;5.18;3.45;;;;;;;21.26;48.77;98239.16;4351017;32;20362;-71
2022/06/25 02:12:34;;;;;;;9.23;5.53;;;;;;;21.19;48.98;98248.25;4364533;32;20091;-72
2022/06/25 02:15:04;;;;;;;9.98;4.32;;;;;;;21.11;49.45;98245.88;4364520;32;20433;-72
2022/06/25 02:17:31;;;;;;;8.57;3.80;;;;;;;21.04;50.39;98254.72;4364697;32;20083;-71
2022/06/25 02:19:59;;;;;;;5.05;2.72;;;;;;;21.03;51.05;98255.75;4364692;32;20122;-71
2022/06/25 02:22:26;;;;;;;6.20;4.95;;;;;;;21.12;51.27;98243.00;4364484;32;20095;-72
2022/06/25 02:24:54;;;;;;;19.45;14.23;;;;;;;20.94;51.69;98238.44;4364531;32;20095;-72
2022/06/25 02:27:21;;;;;;;22.58;17.73;;;;;;;20.87;51.30;98235.81;4364507;32;20091;-71
2022/06/25 02:29:48;;;;;;;21.80;13.38;;;;;;;20.76;51.39;98233.84;4364352;32;20154;-71
2022/06/25 02:32:16;;;;;;;14.68;8.30;;;;;;;20.66;51.16;98228.19;4364534;32;20092;-72
2022/06/25 02:34:43;;;;;;;8.63;4.45;;;;;;;20.89;50.20;98243.56;4364469;32;20091;-71
2022/06/25 02:37:11;;;;;;;10.05;2.50;;;;;;;21.05;49.52;98237.72;4364325;32;20406;-71
2022/06/25 02:39:38;;;;;;;4.45;1.98;;;;;;;20.90;49.63;98247.87;4364234;32;20464;-72
2022/06/25 02:42:06;;;;;;;5.30;2.20;;;;;;;20.84;49.63;98252.22;4363629;32;20169;-71
2022/06/25 02:44:33;;;;;;;2.62;1.77;;;;;;;20.96;49.49;98244.34;4364436;32;20481;-72
2022/06/25 02:47:01;;;;;;;6.57;1.87;;;;;;;21.05;49.84;98253.69;4364265;32;20441;-72
2022/06/25 02:49:29;;;;;;;13.93;2.78;;;;;;;20.95;50.64;98256.03;4351331;32;20122;-72
2022/06/25 02:51:56;;;;;;;7.40;2.20;;;;;;;20.77;51.25;98240.78;4364374;32;20094;-72
2022/06/25 02:54:24;;;;;;;5.53;1.92;;;;;;;20.83;50.16;98249.75;4364517;32;20121;-71
2022/06/25 02:59:42;;;;;;;5.80;1.77;;;;;;;21.00;48.79;98253.53;4364507;32;20095;-72
2022/06/25 03:02:10;;;;;;;2.87;1.98;;;;;;;20.71;48.92;98253.13;4364603;32;20091;-72
2022/06/25 03:04:38;;;;;;;3.62;1.90;;;;;;;20.67;49.11;98245.78;4364429;32;20464;-71
2022/06/25 03:07:06;;;;;;;3.65;1.90;;;;;;;20.84;48.21;98246.88;4364318;32;20079;-71
2022/06/25 03:09:33;;;;;;;5.55;1.73;;;;;;;20.60;48.47;98247.66;4364214;32;20122;-72
2022/06/25 03:12:01;;;;;;;5.03;1.80;;;;;;;20.50;48.45;98256.09;4364408;32;20471;-72
2022/06/25 03:14:29;;;;;;;6.68;1.62;;;;;;;20.43;48.29;98258.00;4364236;32;20100;-71
2022/06/25 03:16:57;;;;;;;3.40;2.12;;;;;;;20.12;48.72;98248.91;4364287;32;20113;-72
2022/06/25 03:19:27;;;;;;;3.22;1.73;;;;;;;20.22;48.29;98246.63;4364318;32;20118;-71
2022/06/25 03:21:56;;;;;;;7.28;1.98;;;;;;;20.90;47.05;98251.34;4364268;32;20103;-72
2022/06/25 03:24:24;;;;;;;4.47;2.08;;;;;;;21.05;46.55;98251.03;4364194;32;20086;-71
2022/06/25 03:26:51;;;;;;;3.17;1.50;;;;;;;20.94;47.01;98241.09;4364045;32;20083;-72
2022/06/25 03:29:19;;;;;;;3.17;1.95;;;;;;;21.11;46.69;98236.03;4364084;32;20746;-71
2022/06/25 03:31:46;;;;;;;3.30;1.73;;;;;;;20.84;47.15;98243.41;4364098;32;20091;-72
2022/06/25 03:34:15;;;;;;;5.65;1.80;;;;;;;20.53;48.20;98240.53;4364105;32;20095;-71
2022/06/25 03:36:43;;;;;;;4.07;2.10;;;;;;;20.81;48.06;98243.84;4363920;32;20467;-72
2022/06/25 03:39:10;;;;;;;5.05;2.30;;;;;;;21.19;47.43;98250.91;4363744;32;20479;-72
2022/06/25 03:41:38;;;;;;;7.22;2.10;;;;;;;21.29;47.07;98256.56;4364048;32;20099;-72
2022/06/25 03:44:09;;;;;;;3.03;1.35;;;;;;;21.24;47.62;98261.72;4363904;32;20110;-72
2022/06/25 03:46:38;;;;;;;4.03;1.90;;;;;;;21.33;47.44;98271.06;4364114;32;20078;-72
2022/06/25 03:49:06;;;;;;;7.03;2.35;;;;;;;21.65;46.87;98268.34;4363646;32;20117;-71
2022/06/25 03:51:36;;;;;;;5.32;2.10;;;;;;;21.61;46.63;98261.81;4363794;32;20113;-71
2022/06/25 03:54:04;;;;;;;2.65;1.87;;;;;;;21.96;45.96;98267.38;4364662;32;20099;-71
2022/06/25 03:56:31;;;;;;;4.37;1.67;;;;;;;22.22;45.58;98267.28;4365709;32;20091;-72
2022/06/25 03:58:58;;;;;;;3.62;1.92;;;;;;;22.17;45.95;98270.63;4365545;32;20166;-72
2022/06/25 04:01:27;;;;;;;4.40;1.98;;;;;;;21.87;46.67;98276.72;4365682;32;20126;-72
2022/06/25 04:03:55;;;;;;;4.15;1.90;;;;;;;21.70;46.96;98281.81;4365640;32;20096;-71
2022/06/25 04:06:23;;;;;;;4.22;2.12;;;;;;;21.64;46.93;98280.03;4365673;32;20087;-72
2022/06/25 04:08:50;;;;;;;3.75;1.85;;;;;;;21.56;47.39;98273.16;4365115;32;20107;-71
2022/06/25 04:11:20;;;;;;;2.37;1.75;;;;;;;21.49;47.57;98276.88;4365650;32;20223;-71
2022/06/25 04:13:48;;;;;;;3.45;1.83;;;;;;;21.90;46.85;98281.59;4365644;32;20087;-71
2022/06/25 04:16:15;;;;;;;2.45;1.80;;;;;;;21.92;47.17;98281.38;4365423;32;20175;-72
2022/06/25 04:18:42;;;;;;;2.10;1.77;;;;;;;22.00;47.09;98291.75;4365504;32;20141;-72
2022/06/25 04:21:10;;;;;;;3.75;1.98;;;;;;;22.36;46.30;98289.28;4365298;32;20113;-71
2022/06/25 04:23:37;;;;;;;5.87;2.10;;;;;;;22.66;45.15;98286.63;4365267;32;20106;-72
2022/06/25 04:26:04;;;;;;;5.40;1.90;;;;;;;22.75;44.53;98285.25;4365553;32;20554;-71
2022/06/25 04:31:20;;;;;;;5.85;1.83;;;;;;;23.36;43.12;98294.00;4359477;32;20075;-71
2022/06/25 04:33:48;;;;;;;4.35;1.90;;;;;;;23.56;41.78;98285.63;4365493;32;20118;-71
2022/06/25 04:36:15;;;;;;;2.58;1.80;;;;;;;23.64;42.57;98295.13;4365460;32;20174;-71
2022/06/25 04:38:44;;;;;;;4.50;1.73;;;;;;;23.72;42.07;98291.28;4365167;32;20423;-72
2022/06/25 04:41:11;;;;;;;4.60;1.70;;;;;;;23.73;41.28;98293.72;4365393;32;20477;-72
2022/06/25 04:43:39;;;;;;;6.43;2.05;;;;;;;23.62;41.04;98301.75;4365093;32;20476;-72
2022/06/25 04:46:07;;;;;;;2.12;1.70;;;;;;;23.68;41.21;98306.16;4352168;32;20110;-71
2022/06/25 04:48:36;;;;;;;4.68;1.90;;;;;;;23.56;41.54;98309.69;4365288;32;20161;-71
2022/06/25 04:51:05;;;;;;;5.28;1.75;;;;;;;23.43;41.87;98314.44;4365314;32;20423;-72
2022/06/25 04:53:54;;;;;;;2.80;1.80;;;;;;;23.45;42.11;98318.53;4365291;32;20436;-72
2022/06/25 04:56:29;;;;;;;4.10;1.95;;;;;;;23.42;41.29;98308.28;4365508;32;20455;-72
2022/06/25 04:58:57;;;;;;;6.43;1.95;;;;;;;23.59;41.08;98312.94;4365284;32;20110;-72
2022/06/25 05:01:24;;;;;;;4.28;2.20;;;;;;;24.23;39.83;98313.00;4365321;32;20162;-71
2022/06/25 05:03:51;;;;;;;4.68;1.60;;;;;;;24.54;40.18;98316.25;4364979;32;20117;-72
2022/06/25 05:06:20;;;;;;;2.35;1.98;;;;;;;24.50;40.44;98301.69;4358585;32;20071;-72
2022/06/25 05:08:48;;;;;;;2.20;2.00;;;;;;;24.06;38.92;98302.22;4364702;32;20140;-72
2022/06/25 05:11:15;;;;;;;6.78;1.80;;;;;;;24.07;39.77;98311.84;4365169;32;20099;-72
2022/06/25 05:13:43;;;;;;;7.78;2.50;;;;;;;24.97;39.05;98314.91;4365256;32;20113;-72
2022/06/25 05:16:10;;;;;;;3.75;2.00;;;;;;;25.18;39.21;98318.75;4351545;32;20437;-72
2022/06/25 05:18:39;;;;;;;2.70;1.95;;;;;;;25.30;38.19;98327.56;4365220;32;20102;-72
2022/06/25 05:21:06;;;;;;;4.53;2.30;;;;;;;25.08;39.90;98329.31;4364868;32;20480;-72
2022/06/25 05:23:34;;;;;;;3.62;1.80;;;;;;;25.70;37.51;98330.28;4365004;32;20110;-72
2022/06/25 05:26:02;;;;;;;8.60;2.20;;;;;;;25.59;37.87;98330.13;4364689;32;20087;-72
2022/06/25 05:28:30;;;;;;;6.40;2.42;;;;;;;25.97;36.61;98335.75;4364842;32;20095;-72
2022/06/25 05:30:57;;;;;;;5.75;2.47;;;;;;;25.86;37.95;98330.25;4364724;32;20216;-72
2022/06/25 05:33:24;;;;;;;8.25;2.10;;;;;;;25.70;37.58;98330.28;4364705;32;20405;-72
2022/06/25 05:35:54;;;;;;;6.57;2.47;;;;;;;25.88;37.73;98327.31;4364670;32;20445;-72
2022/06/25 05:38:21;;;;;;;5.18;2.20;;;;;;;26.01;39.43;98329.69;4351699;32;20099;-72
2022/06/25 05:40:49;;;;;;;4.22;2.50;;;;;;;26.11;37.05;98325.50;4364948;32;20107;-72
2022/06/25 05:43:16;;;;;;;7.90;2.47;;;;;;;25.86;37.44;98329.44;4364680;32;20088;-72
2022/06/25 05:45:43;;;;;;;9.50;3.10;;;;;;;25.62;39.48;98328.84;4364736;32;20377;-72
2022/06/25 05:48:11;;;;;;;6.85;2.72;;;;;;;25.47;39.04;98334.78;4364699;32;20099;-72
2022/06/25 05:50:38;;;;;;;3.83;2.40;;;;;;;25.46;40.64;98331.28;4364394;32;20099;-72
2022/06/25 05:53:05;;;;;;;4.25;2.53;;;;;;;25.30;40.69;98343.66;4364727;32;20167;-72
2022/06/25 05:55:34;;;;;;;4.18;2.42;;;;;;;25.30;41.31;98349.00;4364716;32;20102;-72
2022/06/25 05:58:01;;;;;;;5.25;2.30;;;;;;;25.14;42.11;98349.78;4364764;32;20114;-72
2022/06/25 06:00:28;;;;;;;9.13;2.28;;;;;;;25.22;42.32;98351.25;4364591;32;20095;-72
2022/06/25 06:02:56;;;;;;;3.97;2.22;;;;;;;24.85;43.67;98352.50;4364573;32;20510;-72
2022/06/25 06:05:23;;;;;;;7.82;2.90;;;;;;;25.44;43.80;98351.38;4364542;32;20079;-72
2022/06/25 06:07:50;;;;;;;3.42;2.80;;;;;;;25.14;44.57;98347.91;4364661;32;20122;-72
2022/06/25 06:10:17;;;;;;;4.82;2.92;;;;;;;25.40;45.57;98344.84;4364390;32;20488;-72
2022/06/25 06:12:45;;;;;;;6.30;3.85;;;;;;;24.87;46.55;98355.72;4364610;32;20109;-72
2022/06/25 06:15:12;;;;;;;7.85;4.95;;;;;;;24.30;49.98;98350.31;4364502;32;20113;-72
2022/06/25 06:17:40;;;;;;;5.20;3.72;;;;;;;24.16;52.33;98355.94;4364699;32;20090;-72
2022/06/25 06:20:07;;;;;;;8.90;3.80;;;;;;;24.11;53.46;98353.16;4364574;32;20512;-72
2022/06/25 06:22:35;;;;;;;6.12;4.68;;;;;;;24.19;55.19;98344.75;4364484;32;20113;-72
2022/06/25 06:25:03;;;;;;;6.93;4.60;;;;;;;23.96;57.76;98350.16;4364475;32;20106;-72
2022/06/25 06:27:30;;;;;;;6.07;4.60;;;;;;;24.15;59.84;98348.97;4364494;32;20129;-72
2022/06/25 06:29:58;;;;;;;7.07;5.03;;;;;;;23.97;61.12;98347.25;4364402;32;20103;-72
2022/06/25 06:32:25;;;;;;;5.57;4.70;;;;;;;23.87;61.79;98353.19;4364668;32;20461;-72
2022/06/25 06:34:53;;;;;;;8.00;5.35;;;;;;;23.49;64.43;98351.75;4364252;32;20153;-72
2022/06/25 06:37:20;;;;;;;10.98;5.37;;;;;;;23.66;64.41;98359.91;4358248;32;20099;-72
2022/06/25 06:39:48;;;;;;;6.60;5.12;;;;;;;23.83;64.02;98368.06;4364344;32;20161;-72
2022/06/25 06:42:15;;;;;;;14.85;5.37;;;;;;;23.79;64.43;98372.25;4364328;32;20084;-72
2022/06/25 06:44:42;;;;;;;6.82;5.68;;;;;;;23.84;65.01;98380.38;4364291;32;20483;-72
2022/06/25 06:47:10;;;;;;;9.00;5.25;;;;;;;23.68;65.20;98386.41;4364223;32;20442;-71
2022/06/25 06:49:38;;;;;;;7.53;5.43;;;;;;;23.39;66.15;98389.75;4364356;32;20149;-72
2022/06/25 06:52:05;;;;;;;5.70;4.78;;;;;;;23.72;65.21;98383.06;4364278;32;20583;-71
2022/06/25 06:54:33;;;;;;;6.22;4.70;;;;;;;23.82;64.54;98389.69;4364208;32;20091;-72
2022/06/25 06:57:00;;;;;;;6.50;4.90;;;;;;;24.06;65.07;98393.19;4364386;32;20091;-72
2022/06/25 06:59:27;;;;;;;7.85;5.22;;;;;;;24.20;64.04;98393.75;4364238;32;20500;-71
2022/06/25 07:01:54;;;;;;;7.50;5.00;;;;;;;23.95;64.43;98402.84;4364178;32;20170;-72
2022/06/25 07:04:22;;;;;;;8.38;4.60;;;;;;;23.87;65.42;98395.97;4364168;32;20091;-72
2022/06/25 07:06:50;;;;;;;8.93;4.40;;;;;;;23.93;65.26;98407.63;4364142;32;20433;-72
2022/06/25 07:09:17;;;;;;;10.00;4.57;;;;;;;23.77;65.59;98411.78;4363936;32;20165;-72
2022/06/25 07:11:44;;;;;;;4.05;3.65;;;;;;;23.86;65.24;98406.91;4363834;32;20436;-72
2022/06/25 07:14:13;;;;;;;4.18;3.53;;;;;;;24.27;64.31;98403.28;4364324;32;20452;-72
2022/06/25 07:16:41;;;;;;;5.10;3.55;;;;;;;24.43;63.29;98401.72;4364388;32;20095;-72
2022/06/25 07:19:10;;;;;;;6.12;3.78;;;;;;;24.48;62.63;98401.03;4364316;32;20095;-72
2022/06/25 07:21:38;;;;;;;7.12;3.37;;;;;;;24.34;62.28;98403.16;4363995;32;20164;-72
2022/06/25 07:24:06;;;;;;;10.07;3.47;;;;;;;24.41;63.08;98411.06;4363943;32;20087;-71
2022/06/25 07:26:33;;;;;;;7.50;3.47;;;;;;;24.17;63.63;98404.94;4364017;32;20121;-72
2022/06/25 07:29:01;;;;;;;7.07;3.85;;;;;;;24.45;61.82;98398.81;4363297;32;20438;-72
2022/06/25 07:31:28;;;;;;;5.47;3.47;;;;;;;24.19;62.78;98397.47;4363778;32;20145;-72
2022/06/25 07:33:56;;;;;;;4.85;2.17;;;;;;;24.30;63.48;98403.84;4363809;32;20534;-72
2022/06/25 07:36:23;;;;;;;8.00;3.37;;;;;;;24.51;63.07;98400.56;4363716;32;20102;-72
2022/06/25 07:38:50;;;;;;;3.53;2.35;;;;;;;24.83;60.69;98402.84;4363866;32;20446;-72
2022/06/25 07:41:18;;;;;;;5.65;3.08;;;;;;;24.78;61.27;98405.41;4363731;32;20157;-72
2022/06/25 07:43:45;;;;;;;3.55;2.75;;;;;;;24.10;62.89;98410.41;4363826;32;20090;-72
2022/06/25 07:46:12;;;;;;;2.80;2.42;;;;;;;24.41;62.38;98413.75;4363749;32;20504;-72
2022/06/25 07:48:40;;;;;;;7.87;2.80;;;;;;;24.86;62.17;98415.75;4363786;32;20174;-72
2022/06/25 07:53:55;;;;;;;4.53;2.85;;;;;;;24.88;60.39;98416.31;4363603;32;20083;-72
2022/06/25 07:56:22;;;;;;;4.90;2.67;;;;;;;24.76;61.27;98428.94;4363610;32;20095;-72
2022/06/25 07:58:50;;;;;;;5.60;3.40;;;;;;;24.90;61.95;98435.62;4363571;32;20129;-71
2022/06/25 08:01:18;;;;;;;4.28;2.60;;;;;;;25.22;59.46;98432.47;4363358;32;20445;-72
2022/06/25 08:03:45;;;;;;;4.65;3.10;;;;;;;25.03;59.86;98431.87;4363384;32;20117;-72
2022/06/25 08:06:13;;;;;;;4.18;2.85;;;;;;;24.55;61.49;98433.84;4363346;32;20099;-72
2022/06/25 08:08:40;;;;;;;3.85;2.95;;;;;;;24.95;60.23;98438.44;4363276;32;20091;-71
2022/06/25 08:11:08;;;;;;;4.18;3.42;;;;;;;25.16;59.85;98433.44;4363180;32;20174;-72
2022/06/25 08:13:37;;;;;;;8.02;3.25;;;;;;;24.77;60.14;98447.47;4363291;32;20117;-72
2022/06/25 08:16:05;;;;;;;5.78;2.90;;;;;;;25.44;58.26;98461.31;4363329;32;20099;-72
2022/06/25 08:18:33;;;;;;;6.12;3.33;;;;;;;24.96;59.65;98453.44;4363235;32;20170;-72
2022/06/25 08:21:00;;;;;;;7.00;3.22;;;;;;;24.88;58.94;98459.19;4363259;32;20367;-71
2022/06/25 08:23:27;;;;;;;3.65;3.15;;;;;;;24.86;59.25;98458.62;4362821;32;20090;-71
2022/06/25 08:25:54;;;;;;;5.30;3.80;;;;;;;24.98;59.25;98463.91;4362989;32;20103;-72
2022/06/25 08:28:23;;;;;;;3.95;2.60;;;;;;;24.90;59.45;98462.44;4363213;32;20095;-72
2022/06/25 08:30:50;;;;;;;4.40;3.22;;;;;;;24.83;59.67;98471.66;4363244;32;20087;-72
2022/06/25 08:33:18;;;;;;;5.80;2.80;;;;;;;25.14;58.11;98465.03;4363114;32;20207;-72
2022/06/25 08:35:45;;;;;;;2.58;2.28;;;;;;;25.35;57.51;98468.94;4363098;32;20095;-72
2022/06/25 08:38:12;;;;;;;5.18;2.53;;;;;;;25.42;57.03;98471.47;4363083;32;20115;-71
2022/06/25 08:40:39;;;;;;;6.55;2.60;;;;;;;25.10;57.58;98467.41;4363932;32;20091;-72
2022/06/25 08:43:10;;;;;;;4.60;2.90;;;;;;;25.11;58.04;98474.38;4365172;32;20079;-72
2022/06/25 08:45:37;;;;;;;4.47;2.42;;;;;;;24.98;58.07;98466.59;4365219;32;20465;-72
2022/06/25 08:48:10;;;;;;;3.70;2.40;;;;;;;25.42;57.46;98466.94;4365173;32;20091;-72
2022/06/25 08:50:37;;;;;;;6.10;2.45;;;;;;;25.07;58.15;98469.72;4365134;32;20164;-72
2022/06/25 08:53:05;;;;;;;2.72;2.35;;;;;;;25.71;56.64;98466.03;4351759;32;20101;-72
2022/06/25 08:55:35;;;;;;;3.30;2.80;;;;;;;25.42;56.58;98471.47;4364987;32;20122;-72
2022/06/25 08:58:03;;;;;;;4.60;3.10;;;;;;;25.27;56.59;98472.78;4365187;32;20107;-72
2022/06/25 09:00:33;;;;;;;4.53;2.50;;;;;;;25.48;56.35;98473.16;4364972;32;20126;-72
2022/06/25 09:03:01;;;;;;;4.85;3.00;;;;;;;25.88;54.99;98461.50;4351538;32;20488;-72
2022/06/25 09:05:42;;;;;;;4.28;2.72;;;;;;;25.76;55.71;98469.63;4365028;32;20103;-71
2022/06/25 09:08:12;;;;;;;3.47;2.75;;;;;;;25.70;55.60;98469.81;4364796;32;20113;-72
2022/06/25 09:10:41;;;;;;;5.25;2.90;;;;;;;25.61;55.49;98472.88;4365039;32;20079;-72
2022/06/25 09:13:09;;;;;;;3.47;3.17;;;;;;;25.47;56.04;98471.56;4364831;32;20459;-71
2022/06/25 09:15:39;;;;;;;4.37;2.85;;;;;;;25.02;57.60;98475.00;4364920;32;20190;-71
2022/06/25 09:18:11;;;;;;;3.87;3.05;;;;;;;26.03;55.17;98472.50;4364860;32;20091;-72
2022/06/25 09:21:17;;;;;;;4.15;3.00;;;;;;;25.85;55.72;98470.03;4365115;32;20106;-72
2022/06/25 09:24:00;;;;;;;7.15;3.08;;;;;;;26.07;54.91;98474.69;4318409;33;20122;-72
2022/06/25 09:26:28;;;;;;;5.22;2.70;;;;;;;26.07;54.68;98480.88;4313883;33;20138;-72
2022/06/25 09:29:00;;;;;;;4.22;2.78;;;;;;;26.05;54.65;98482.19;4306411;33;20548;-72
2022/06/25 09:31:37;;;;;;;3.28;2.80;;;;;;;25.95;54.84;98483.63;4318424;33;20084;-72
2022/06/25 09:34:06;;;;;;;3.58;2.55;;;;;;;26.16;53.90;98471.38;4318316;33;20128;-72
2022/06/25 09:36:34;;;;;;;4.40;3.37;;;;;;;26.34;52.68;98480.19;4318468;33;20112;-72
2022/06/25 09:39:01;;;;;;;5.85;2.50;;;;;;;26.06;53.81;98478.44;4318602;33;20171;-72
2022/06/25 09:41:53;;;;;;;5.05;2.50;;;;;;;26.21;53.52;98486.72;4318236;33;20096;-72
2022/06/25 09:44:21;;;;;;;4.75;2.80;;;;;;;26.49;52.87;98479.59;4318439;33;20171;-72
2022/06/25 09:46:56;;;;;;;6.25;2.50;;;;;;;26.49;52.25;98474.22;4318259;33;20107;-72
2022/06/25 09:49:25;;;;;;;5.85;2.90;;;;;;;26.54;51.86;98479.66;4318500;33;20108;-72
2022/06/25 09:52:02;;;;;;;5.32;3.05;;;;;;;26.56;52.40;98482.91;4317934;33;20100;-72
2022/06/25 09:54:31;;;;;;;3.33;2.70;;;;;;;26.49;51.67;98483.09;4340166;32;20108;-72
2022/06/25 09:56:59;;;;;;;3.97;2.65;;;;;;;26.05;52.96;98479.50;4364823;32;20158;-72
2022/06/25 09:59:30;;;;;;;7.62;2.70;;;;;;;26.29;52.74;98482.81;4364654;32;20095;-72
2022/06/25 10:01:59;;;;;;;5.28;2.28;;;;;;;26.44;51.57;98469.59;4364649;32;20079;-72
2022/06/25 10:04:28;;;;;;;5.62;2.40;;;;;;;26.77;52.00;98485.88;4364810;32;20095;-72
2022/06/25 10:06:56;;;;;;;7.50;2.55;;;;;;;26.77;51.10;98483.19;4364464;32;20091;-72
2022/06/25 10:09:25;;;;;;;4.30;2.47;;;;;;;26.62;50.77;98476.53;4351015;32;20147;-72
2022/06/25 10:11:53;;;;;;;3.10;2.47;;;;;;;27.02;50.07;98490.75;4364548;32;20135;-72
2022/06/25 10:14:21;;;;;;;5.40;2.80;;;;;;;26.87;50.16;98473.41;4364572;32;20099;-72
2022/06/25 10:16:50;;;;;;;4.43;2.17;;;;;;;26.72;50.56;98486.63;4351100;32;20103;-72
2022/06/25 10:19:19;;;;;;;4.25;2.25;;;;;;;26.87;49.94;98473.41;4351255;32;20106;-72
2022/06/25 10:21:47;;;;;;;2.80;2.28;;;;;;;26.76;51.22;98468.94;4351146;32;20087;-72
2022/06/25 10:24:15;;;;;;;5.28;2.40;;;;;;;27.01;49.32;98465.75;4364406;32;20083;-72
2022/06/25 10:26:42;;;;;;;2.53;2.22;;;;;;;26.98;49.49;98460.87;4351260;32;20098;-72
2022/06/25 10:29:29;;;;;;;3.20;2.17;;;;;;;27.00;49.71;98464.13;4351077;32;20385;-72
2022/06/25 10:32:17;;;;;;;3.45;2.17;;;;;;;26.87;49.72;98461.81;4364359;32;20075;-72
2022/06/25 10:34:58;;;;;;;2.67;2.15;;;;;;;26.98;49.30;98458.19;4364562;32;20093;-72
2022/06/25 10:37:25;;;;;;;5.57;2.50;;;;;;;27.18;49.49;98457.59;4364378;32;20468;-72
2022/06/25 10:39:54;;;;;;;5.25;2.20;;;;;;;27.19;48.92;98463.78;4364558;32;20121;-72
2022/06/25 10:45:29;;;;;;;2.60;1.90;;;;;;;27.35;48.15;98449.44;4364399;32;20082;-72
2022/06/25 10:47:58;;;;;;;3.78;2.10;;;;;;;27.79;48.38;98451.97;4364303;32;20095;-72
2022/06/25 10:50:32;;;;;;;4.47;2.10;;;;;;;27.50;47.25;98453.34;4364304;32;20121;-72
2022/06/25 10:53:02;;;;;;;5.28;2.05;;;;;;;27.62;46.69;98448.63;4364181;32;20491;-72
2022/06/25 10:55:37;;;;;;;3.75;1.70;;;;;;;27.56;47.31;98436.19;4364418;32;20075;-72
2022/06/25 10:58:17;;;;;;;3.60;1.83;;;;;;;27.46;48.23;98436.91;4364299;32;20086;-72
2022/06/25 11:00:55;;;;;;;3.15;2.15;;;;;;;27.98;46.91;98430.06;4364269;32;20098;-72
2022/06/25 11:03:28;;;;;;;3.20;1.70;;;;;;;27.99;46.26;98426.28;4363235;32;20144;-72
2022/06/25 11:05:56;;;;;;;;;;;;;;;27.28;47.81;98440.72;4364715;32;20551;-72
2022/06/25 11:08:36;;;;;;;20.37;2.28;;;;;;;27.17;48.11;98430.97;4364105;32;19997;-72
2022/06/25 11:11:05;;;;;;;2.17;1.60;;;;;;;27.71;46.71;98438.19;4364123;32;20385;-72
2022/06/25 11:13:33;;;;;;;4.00;1.70;;;;;;;27.70;47.00;98420.41;4364067;32;20187;-72
2022/06/25 11:16:12;;;;;;;2.42;1.58;;;;;;;27.43;46.40;98432.84;4363960;32;20098;-72
2022/06/25 11:18:51;;;;;;;2.17;1.45;;;;;;;27.71;46.64;98425.53;4363937;32;20155;-72
2022/06/25 11:21:29;;;;;;;3.62;1.60;;;;;;;27.67;46.63;98432.50;4364086;32;20087;-72
2022/06/25 11:24:11;;;;;;;5.28;1.62;;;;;;;27.68;46.18;98430.63;4363982;32;20144;-72
2022/06/25 11:29:29;;;;;;;4.55;1.42;;;;;;;28.08;45.38;98437.41;4364072;32;20122;-72
2022/06/25 11:31:57;;;;;;;4.85;1.55;;;;;;;27.56;46.57;98441.56;4363822;32;20087;-72
2022/06/25 11:34:27;;;;;;;2.65;1.35;;;;;;;27.38;46.47;98457.00;4363783;32;20110;-72
2022/06/25 11:37:04;;;;;;;2.20;1.40;;;;;;;26.94;47.00;98438.25;4363721;32;20079;-72
2022/06/25 11:39:32;;;;;;;1.52;1.30;;;;;;;26.64;47.93;98436.78;4363884;32;20425;-72
2022/06/25 11:42:01;;;;;;;1.30;1.20;;;;;;;26.69;47.76;98434.22;4363955;32;20102;-72
2022/06/25 11:44:37;;;;;;;2.30;1.10;;;;;;;27.13;47.06;98433.31;4363779;32;20091;-72
2022/06/25 11:47:05;;;;;;;5.85;1.10;;;;;;;27.07;47.59;98437.84;4363766;32;20151;-72
2022/06/25 11:49:36;;;;;;;1.75;1.30;;;;;;;27.11;47.65;98440.03;4363661;32;20096;-72
2022/06/25 11:52:05;;;;;;;2.35;1.30;;;;;;;27.76;46.38;98422.87;4363537;32;20095;-72
2022/06/25 11:54:36;;;;;;;4.40;1.70;;;;;;;27.62;46.07;98419.00;4363896;32;20075;-72
2022/06/25 11:57:05;;;;;;;2.70;1.20;;;;;;;27.73;46.31;98423.37;4363646;32;20098;-72
2022/06/25 11:59:37;;;;;;;2.95;1.25;;;;;;;28.17;45.08;98421.56;4363423;32;20114;-72
2022/06/25 12:02:06;;;;;;;4.60;1.15;;;;;;;27.75;45.72;98423.97;4363632;32;20095;-72